Time,TemperatureF,DewpointF,PressureIn,WindDirection,WindDirectionDegrees,WindSpeedMPH,WindSpeedGustMPH,Humidity,HourlyPrecipIn,Conditions,Clouds,dailyrainin,SolarRadiationWatts/m^2,SoftwareType,DateUTC
2013-08-29 01:12:00,60.0,53.0,30.29,South,170,8.0,12.0,77,-99.99,,,-99.99,0.000000,,2013-08-29 08:12:00,
2013-08-29 01:22:00,61.0,53.0,30.29,South,172,8.0,12.0,76,-99.99,,,-99.99,0.000000,,2013-08-29 08:22:00,
2013-08-29 01:30:00,57.0,51.0,30.29,SSE,152,11.0,16.0,82,-99.99,,,-99.99,0.000000,,2013-08-29 08:30:00,
2013-08-29 01:42:00,59.0,52.0,30.29,SSE,155,12.0,15.0,80,-99.99,,,-99.99,0.000000,,2013-08-29 08:42:00,
2013-08-29 01:52:00,57.0,52.0,30.29,SSE,155,11.0,15.0,84,-99.99,,,-99.99,0.000000,,2013-08-29 08:52:00,
2013-08-29 02:21:00,57.0,51.0,30.29,SSE,152,11.0,16.0,82,-99.99,,,-99.99,0.000000,,2013-08-29 09:21:00,
2013-08-29 03:43:00,56.0,49.0,30.28,SSE,158,10.0,13.0,78,-99.99,,,-99.99,0.000000,,2013-08-29 10:43:00,
2013-08-29 04:22:00,55.0,49.0,30.28,SSE,154,8.0,11.0,81,-99.99,,,-99.99,1.000000,,2013-08-29 11:22:00,
2013-08-29 04:42:00,56.0,49.0,30.28,SSE,154,9.0,13.0,78,-99.99,,,-99.99,0.000000,,2013-08-29 11:42:00,
2013-08-29 05:11:00,55.0,49.0,30.28,SE,143,7.0,9.0,79,-99.99,,,-99.99,0.000000,,2013-08-29 12:11:00,
2013-08-29 05:22:00,55.0,49.0,30.29,SE,129,5.0,7.0,80,-99.99,,,-99.99,0.000000,,2013-08-29 12:22:00,
2013-08-29 05:42:00,54.0,49.0,30.29,SE,131,7.0,11.0,81,-99.99,,,-99.99,0.000000,,2013-08-29 12:42:00,
2013-08-29 05:52:00,54.0,49.0,30.29,SE,131,7.0,11.0,81,-99.99,,,-99.99,0.000000,,2013-08-29 12:52:00,
2013-08-29 06:10:00,52.0,48.0,30.31,SE,134,6.0,7.0,84,-99.99,,,-99.99,7.000000,,2013-08-29 13:10:00,
2013-08-29 06:22:00,56.0,49.0,30.30,SSE,149,6.0,8.0,79,-99.99,,,-99.99,0.000000,,2013-08-29 13:22:00,
2013-08-29 06:42:00,54.0,48.0,30.30,SE,145,5.0,7.0,80,-99.99,,,-99.99,0.000000,,2013-08-29 13:42:00,
2013-08-29 07:40:00,61.0,51.0,30.33,SSE,147,4.0,7.0,70,-99.99,,,-99.99,264.000000,,2013-08-29 14:40:00,
2013-08-29 07:42:00,55.0,49.0,30.32,SE,146,5.0,10.0,80,-99.99,,,-99.99,126.000000,,2013-08-29 14:42:00,
2013-08-29 08:21:00,61.0,51.0,30.33,SSE,147,4.0,7.0,70,-99.99,,,-99.99,264.000000,,2013-08-29 15:21:00,
2013-08-29 08:33:00,61.0,51.0,30.33,SSE,147,4.0,7.0,70,-99.99,,,-99.99,264.000000,,2013-08-29 15:33:00,
2013-08-29 09:24:00,70.0,52.0,30.33,ESE,116,3.0,5.0,52,-99.99,,,-99.99,443.000000,,2013-08-29 16:24:00,
2013-08-29 09:43:00,73.0,52.0,30.33,ESE,118,4.0,7.0,48,-99.99,,,-99.99,516.000000,,2013-08-29 16:43:00,
2013-08-29 10:13:00,75.0,53.0,30.33,SE,124,3.0,7.0,46,-99.99,,,-99.99,627.000000,,2013-08-29 17:13:00,
2013-08-29 10:22:00,78.0,51.0,30.33,ESE,114,4.0,11.0,39,-99.99,,,-99.99,692.000000,,2013-08-29 17:22:00,
2013-08-29 10:43:00,78.0,50.0,30.33,ESE,122,7.0,13.0,38,-99.99,,,-99.99,599.000000,,2013-08-29 17:43:00,
2013-08-29 11:12:00,80.0,50.0,30.32,SE,137,5.0,12.0,35,-99.99,,,-99.99,917.000000,,2013-08-29 18:12:00,
2013-08-29 11:21:00,81.0,50.0,30.32,SSE,148,9.0,16.0,34,-99.99,,,-99.99,956.000000,,2013-08-29 18:21:00,
2013-08-29 11:42:00,80.0,50.0,30.32,SE,146,11.0,17.0,35,-99.99,,,-99.99,938.000000,,2013-08-29 18:42:00,
2013-08-29 11:50:00,83.0,46.0,30.30,SE,135,14.0,23.0,28,-99.99,,,-99.99,1026.000000,,2013-08-29 18:50:00,
2013-08-29 12:22:00,81.0,47.0,30.31,SSE,149,9.0,19.0,30,-99.99,,,-99.99,998.000000,,2013-08-29 19:22:00,
2013-08-29 12:42:00,83.0,46.0,30.30,SE,135,14.0,23.0,28,-99.99,,,-99.99,1026.000000,,2013-08-29 19:42:00,
2013-08-29 13:12:00,83.0,45.0,30.30,SE,127,12.0,22.0,27,-99.99,,,-99.99,814.000000,,2013-08-29 20:12:00,
2013-08-29 13:21:00,83.0,44.0,30.30,SE,134,14.0,20.0,26,-99.99,,,-99.99,763.000000,,2013-08-29 20:21:00,
2013-08-29 13:42:00,84.0,42.0,30.29,South,179,12.0,21.0,23,-99.99,,,-99.99,1045.000000,,2013-08-29 20:42:00,
2013-08-29 13:52:00,84.0,41.0,30.29,SSE,164,12.0,20.0,22,-99.99,,,-99.99,1029.000000,,2013-08-29 20:52:00,
2013-08-29 14:12:00,84.0,40.0,30.29,South,174,13.0,21.0,21,-99.99,,,-99.99,1048.000000,,2013-08-29 21:12:00,
2013-08-29 14:22:00,86.0,40.0,30.28,South,184,14.0,20.0,20,-99.99,,,-99.99,1039.000000,,2013-08-29 21:22:00,
2013-08-29 14:44:00,84.0,40.0,30.28,South,169,16.0,23.0,21,-99.99,,,-99.99,936.000000,,2013-08-29 21:44:00,
2013-08-29 14:50:00,86.0,40.0,30.28,SSW,198,16.0,24.0,20,-99.99,,,-99.99,905.000000,,2013-08-29 21:50:00,
2013-08-29 15:24:00,85.0,43.0,30.28,SSE,166,12.0,20.0,23,-99.99,,,-99.99,801.000000,,2013-08-29 22:24:00,
2013-08-29 15:43:00,86.0,40.0,30.28,SSW,198,16.0,24.0,20,-99.99,,,-99.99,905.000000,,2013-08-29 22:43:00,
2013-08-29 16:22:00,86.0,41.0,30.27,SSW,195,10.0,23.0,20,-99.99,,,-99.99,812.000000,,2013-08-29 23:22:00,
2013-08-29 16:42:00,86.0,41.0,30.27,SSW,194,12.0,20.0,21,-99.99,,,-99.99,184.000000,,2013-08-29 23:42:00,
2013-08-29 16:53:00,85.0,43.0,30.27,SW,230,13.0,23.0,23,-99.99,,,-99.99,407.000000,,2013-08-29 23:53:00,
2013-08-29 17:02:00,85.0,43.0,30.27,SW,230,13.0,23.0,23,-99.99,,,-99.99,407.000000,,2013-08-30 00:02:00,
2013-08-29 17:21:00,85.0,43.0,30.26,West,265,12.0,18.0,23,-99.99,,,-99.99,575.000000,,2013-08-30 00:21:00,
2013-08-29 17:42:00,86.0,43.0,30.26,SSW,202,10.0,18.0,22,-99.99,,,-99.99,525.000000,,2013-08-30 00:42:00,
2013-08-29 17:52:00,85.0,42.0,30.26,SSW,212,6.0,13.0,22,-99.99,,,-99.99,445.000000,,2013-08-30 00:52:00,
2013-08-29 18:01:00,85.0,42.0,30.26,SSW,212,6.0,13.0,22,-99.99,,,-99.99,445.000000,,2013-08-30 01:01:00,
2013-08-29 18:10:00,83.0,42.0,30.26,SSW,197,10.0,15.0,23,-99.99,,,-99.99,51.000000,,2013-08-30 01:10:00,
2013-08-29 18:21:00,84.0,43.0,30.26,ESE,113,8.0,14.0,24,-99.99,,,-99.99,156.000000,,2013-08-30 01:21:00,
2013-08-29 18:42:00,84.0,43.0,30.26,SE,136,8.0,15.0,24,-99.99,,,-99.99,94.000000,,2013-08-30 01:42:00,
2013-08-29 18:52:00,83.0,42.0,30.26,SSW,197,10.0,15.0,23,-99.99,,,-99.99,51.000000,,2013-08-30 01:52:00,
2013-08-29 19:02:00,83.0,42.0,30.26,SSW,197,10.0,15.0,23,-99.99,,,-99.99,51.000000,,2013-08-30 02:02:00,
2013-08-29 19:42:00,81.0,46.0,30.26,SSW,192,15.0,21.0,30,-99.99,,,-99.99,35.000000,,2013-08-30 02:42:00,
2013-08-29 20:22:00,78.0,46.0,30.27,SE,134,6.0,8.0,32,-99.99,,,-99.99,0.000000,,2013-08-30 03:22:00,
2013-08-29 20:30:00,75.0,45.0,30.29,SSE,148,6.0,11.0,34,-99.99,,,-99.99,0.000000,,2013-08-30 03:30:00,
2013-08-29 20:43:00,77.0,46.0,30.28,SSE,149,6.0,8.0,34,-99.99,,,-99.99,0.000000,,2013-08-30 03:43:00,
2013-08-29 21:14:00,76.0,44.0,30.29,SE,124,8.0,14.0,32,-99.99,,,-99.99,0.000000,,2013-08-30 04:14:00,
2013-08-29 21:24:00,75.0,45.0,30.29,SSE,148,6.0,11.0,34,-99.99,,,-99.99,0.000000,,2013-08-30 04:24:00,
2013-08-29 22:00:00,70.0,47.0,30.31,South,191,11.0,15.0,44,-99.99,,,-99.99,0.000000,,2013-08-30 05:00:00,
2013-08-29 22:12:00,70.0,46.0,30.31,South,170,7.0,10.0,43,-99.99,,,-99.99,0.000000,,2013-08-30 05:12:00,
2013-08-29 22:23:00,68.0,47.0,30.31,South,172,8.0,12.0,48,-99.99,,,-99.99,0.000000,,2013-08-30 05:23:00,
2013-08-29 22:42:00,68.0,47.0,30.32,South,187,9.0,13.0,47,-99.99,,,-99.99,0.000000,,2013-08-30 05:42:00,
2013-08-29 22:52:00,70.0,47.0,30.31,South,191,11.0,15.0,44,-99.99,,,-99.99,0.000000,,2013-08-30 05:52:00,
2013-08-29 23:42:00,69.0,47.0,30.32,South,179,9.0,13.0,45,-99.99,,,-99.99,0.000000,,2013-08-30 06:42:00,